sensor_id;sensor_type;location;lat;lon;timestamp;P1;durP1;ratioP1;P2;durP2;ratioP2
74624;SDS011;63131;52.298;8.056;2023-07-28T00:00:24;7.53;;;2.37;;
74624;SDS011;63131;52.298;8.056;2023-07-28T00:02:50;7.17;;;2.70;;
74624;SDS011;63131;52.298;8.056;2023-07-28T00:05:15;6.72;;;2.40;;
74624;SDS011;63131;52.298;8.056;2023-07-28T00:07:40;7.90;;;2.80;;
74624;SDS011;63131;52.298;8.056;2023-07-28T00:10:05;8.77;;;2.80;;
74624;SDS011;63131;52.298;8.056;2023-07-28T00:12:31;7.63;;;2.28;;
74624;SDS011;63131;52.298;8.056;2023-07-28T00:14:56;6.70;;;2.40;;
74624;SDS011;63131;52.298;8.056;2023-07-28T00:17:21;7.10;;;3.00;;
74624;SDS011;63131;52.298;8.056;2023-07-28T00:19:47;8.10;;;2.92;;
74624;SDS011;63131;52.298;8.056;2023-07-28T00:22:12;8.57;;;3.03;;
74624;SDS011;63131;52.298;8.056;2023-07-28T00:24:37;9.30;;;3.03;;
74624;SDS011;63131;52.298;8.056;2023-07-28T00:27:02;7.73;;;2.63;;
74624;SDS011;63131;52.298;8.056;2023-07-28T00:29:28;7.28;;;2.58;;
74624;SDS011;63131;52.298;8.056;2023-07-28T00:31:53;8.47;;;3.00;;
74624;SDS011;63131;52.298;8.056;2023-07-28T00:34:18;7.87;;;2.63;;
74624;SDS011;63131;52.298;8.056;2023-07-28T00:36:43;7.07;;;2.30;;
74624;SDS011;63131;52.298;8.056;2023-07-28T00:39:09;7.57;;;3.00;;
74624;SDS011;63131;52.298;8.056;2023-07-28T00:41:34;8.30;;;2.60;;
74624;SDS011;63131;52.298;8.056;2023-07-28T00:43:59;8.40;;;2.60;;
74624;SDS011;63131;52.298;8.056;2023-07-28T00:46:24;7.60;;;2.60;;
74624;SDS011;63131;52.298;8.056;2023-07-28T00:48:50;7.28;;;2.50;;
74624;SDS011;63131;52.298;8.056;2023-07-28T00:51:15;9.18;;;3.63;;
74624;SDS011;63131;52.298;8.056;2023-07-28T00:53:40;9.90;;;3.15;;
74624;SDS011;63131;52.298;8.056;2023-07-28T00:56:06;10.88;;;4.78;;
74624;SDS011;63131;52.298;8.056;2023-07-28T00:58:32;8.63;;;3.35;;
74624;SDS011;63131;52.298;8.056;2023-07-28T01:00:57;9.38;;;3.47;;
74624;SDS011;63131;52.298;8.056;2023-07-28T01:03:23;8.00;;;2.67;;
74624;SDS011;63131;52.298;8.056;2023-07-28T01:05:51;12.15;;;4.13;;
74624;SDS011;63131;52.298;8.056;2023-07-28T01:08:21;9.85;;;3.50;;
74624;SDS011;63131;52.298;8.056;2023-07-28T01:10:48;9.32;;;3.47;;
74624;SDS011;63131;52.298;8.056;2023-07-28T01:13:14;9.40;;;3.50;;
74624;SDS011;63131;52.298;8.056;2023-07-28T01:15:39;7.90;;;2.67;;
74624;SDS011;63131;52.298;8.056;2023-07-28T01:18:04;9.37;;;3.23;;
74624;SDS011;63131;52.298;8.056;2023-07-28T01:20:30;9.00;;;3.43;;
74624;SDS011;63131;52.298;8.056;2023-07-28T01:25:28;9.03;;;3.23;;
74624;SDS011;63131;52.298;8.056;2023-07-28T01:27:54;10.93;;;4.15;;
74624;SDS011;63131;52.298;8.056;2023-07-28T01:30:21;10.88;;;3.60;;
74624;SDS011;63131;52.298;8.056;2023-07-28T01:32:47;8.75;;;3.33;;
74624;SDS011;63131;52.298;8.056;2023-07-28T01:37:37;9.48;;;3.28;;
74624;SDS011;63131;52.298;8.056;2023-07-28T01:40:02;8.90;;;3.00;;
74624;SDS011;63131;52.298;8.056;2023-07-28T01:42:28;9.30;;;3.50;;
74624;SDS011;63131;52.298;8.056;2023-07-28T01:44:53;9.40;;;3.30;;
74624;SDS011;63131;52.298;8.056;2023-07-28T01:47:18;8.97;;;3.37;;
74624;SDS011;63131;52.298;8.056;2023-07-28T01:49:44;9.15;;;2.97;;
74624;SDS011;63131;52.298;8.056;2023-07-28T01:52:09;8.83;;;3.47;;
74624;SDS011;63131;52.298;8.056;2023-07-28T01:54:34;10.30;;;3.07;;
74624;SDS011;63131;52.298;8.056;2023-07-28T01:57:00;7.63;;;2.50;;
74624;SDS011;63131;52.298;8.056;2023-07-28T01:59:25;9.40;;;2.97;;
74624;SDS011;63131;52.298;8.056;2023-07-28T02:01:50;8.63;;;2.93;;
74624;SDS011;63131;52.298;8.056;2023-07-28T02:04:15;12.10;;;3.10;;
74624;SDS011;63131;52.298;8.056;2023-07-28T02:06:41;7.88;;;3.15;;
74624;SDS011;63131;52.298;8.056;2023-07-28T02:09:06;8.57;;;2.83;;
74624;SDS011;63131;52.298;8.056;2023-07-28T02:13:57;8.98;;;3.03;;
74624;SDS011;63131;52.298;8.056;2023-07-28T02:16:23;7.97;;;3.10;;
74624;SDS011;63131;52.298;8.056;2023-07-28T02:18:48;7.90;;;3.05;;
74624;SDS011;63131;52.298;8.056;2023-07-28T02:21:14;8.90;;;3.20;;
74624;SDS011;63131;52.298;8.056;2023-07-28T02:23:39;8.47;;;3.00;;
74624;SDS011;63131;52.298;8.056;2023-07-28T02:26:04;9.45;;;3.15;;
74624;SDS011;63131;52.298;8.056;2023-07-28T02:28:29;7.83;;;2.70;;
74624;SDS011;63131;52.298;8.056;2023-07-28T02:30:55;9.43;;;3.40;;
74624;SDS011;63131;52.298;8.056;2023-07-28T02:33:20;11.00;;;3.80;;
74624;SDS011;63131;52.298;8.056;2023-07-28T02:35:45;8.80;;;3.07;;
74624;SDS011;63131;52.298;8.056;2023-07-28T02:38:10;9.20;;;3.33;;
74624;SDS011;63131;52.298;8.056;2023-07-28T02:40:36;9.97;;;4.03;;
74624;SDS011;63131;52.298;8.056;2023-07-28T02:43:01;9.80;;;3.30;;
74624;SDS011;63131;52.298;8.056;2023-07-28T02:45:26;7.93;;;3.03;;
74624;SDS011;63131;52.298;8.056;2023-07-28T02:47:51;8.05;;;3.22;;
74624;SDS011;63131;52.298;8.056;2023-07-28T02:50:17;10.40;;;3.30;;
74624;SDS011;63131;52.298;8.056;2023-07-28T02:52:42;9.10;;;3.47;;
74624;SDS011;63131;52.298;8.056;2023-07-28T02:55:07;10.27;;;3.47;;
74624;SDS011;63131;52.298;8.056;2023-07-28T02:57:32;9.40;;;3.58;;
74624;SDS011;63131;52.298;8.056;2023-07-28T02:59:58;10.23;;;4.50;;
74624;SDS011;63131;52.298;8.056;2023-07-28T03:02:23;9.18;;;3.15;;
74624;SDS011;63131;52.298;8.056;2023-07-28T03:07:14;9.15;;;3.58;;
74624;SDS011;63131;52.298;8.056;2023-07-28T03:09:39;8.57;;;3.17;;
74624;SDS011;63131;52.298;8.056;2023-07-28T03:14:31;9.93;;;3.35;;
74624;SDS011;63131;52.298;8.056;2023-07-28T03:16:56;10.05;;;4.03;;
74624;SDS011;63131;52.298;8.056;2023-07-28T03:21:47;8.70;;;3.60;;
74624;SDS011;63131;52.298;8.056;2023-07-28T03:26:37;9.80;;;3.95;;
74624;SDS011;63131;52.298;8.056;2023-07-28T03:29:03;9.97;;;3.50;;
74624;SDS011;63131;52.298;8.056;2023-07-28T03:31:28;9.90;;;3.97;;
74624;SDS011;63131;52.298;8.056;2023-07-28T03:33:53;9.93;;;3.65;;
74624;SDS011;63131;52.298;8.056;2023-07-28T03:36:18;9.73;;;3.60;;
74624;SDS011;63131;52.298;8.056;2023-07-28T03:41:09;9.15;;;3.33;;
74624;SDS011;63131;52.298;8.056;2023-07-28T03:43:34;10.07;;;3.40;;
74624;SDS011;63131;52.298;8.056;2023-07-28T03:46:00;9.48;;;4.25;;
74624;SDS011;63131;52.298;8.056;2023-07-28T03:48:25;9.60;;;3.47;;
74624;SDS011;63131;52.298;8.056;2023-07-28T03:53:16;8.52;;;3.40;;
74624;SDS011;63131;52.298;8.056;2023-07-28T03:55:41;9.37;;;3.83;;
74624;SDS011;63131;52.298;8.056;2023-07-28T03:58:06;8.00;;;3.03;;
74624;SDS011;63131;52.298;8.056;2023-07-28T04:00:31;9.00;;;2.93;;
74624;SDS011;63131;52.298;8.056;2023-07-28T04:02:57;9.47;;;3.60;;
74624;SDS011;63131;52.298;8.056;2023-07-28T04:05:22;9.63;;;3.73;;
74624;SDS011;63131;52.298;8.056;2023-07-28T04:07:47;9.30;;;3.25;;
74624;SDS011;63131;52.298;8.056;2023-07-28T04:10:12;9.47;;;3.27;;
74624;SDS011;63131;52.298;8.056;2023-07-28T04:12:37;10.00;;;3.83;;
74624;SDS011;63131;52.298;8.056;2023-07-28T04:15:03;7.97;;;2.97;;
74624;SDS011;63131;52.298;8.056;2023-07-28T04:17:28;7.93;;;3.20;;
74624;SDS011;63131;52.298;8.056;2023-07-28T04:19:53;7.43;;;2.63;;
74624;SDS011;63131;52.298;8.056;2023-07-28T04:22:19;8.25;;;2.80;;
74624;SDS011;63131;52.298;8.056;2023-07-28T04:24:46;7.28;;;2.65;;
74624;SDS011;63131;52.298;8.056;2023-07-28T04:27:14;7.75;;;2.60;;
74624;SDS011;63131;52.298;8.056;2023-07-28T04:29:39;7.38;;;2.22;;
74624;SDS011;63131;52.298;8.056;2023-07-28T04:32:05;8.15;;;2.97;;
74624;SDS011;63131;52.298;8.056;2023-07-28T04:34:32;7.80;;;2.40;;
74624;SDS011;63131;52.298;8.056;2023-07-28T04:36:58;9.00;;;3.17;;
74624;SDS011;63131;52.298;8.056;2023-07-28T04:39:23;7.28;;;2.22;;
74624;SDS011;63131;52.298;8.056;2023-07-28T04:41:49;7.40;;;2.45;;
74624;SDS011;63131;52.298;8.056;2023-07-28T04:44:14;6.80;;;2.28;;
74624;SDS011;63131;52.298;8.056;2023-07-28T04:46:39;7.33;;;2.27;;
74624;SDS011;63131;52.298;8.056;2023-07-28T04:49:04;8.47;;;2.87;;
74624;SDS011;63131;52.298;8.056;2023-07-28T04:53:55;7.40;;;2.70;;
74624;SDS011;63131;52.298;8.056;2023-07-28T04:56:20;7.27;;;2.40;;
74624;SDS011;63131;52.298;8.056;2023-07-28T04:58:45;8.20;;;2.90;;
74624;SDS011;63131;52.298;8.056;2023-07-28T05:01:11;8.27;;;2.83;;
74624;SDS011;63131;52.298;8.056;2023-07-28T05:03:37;8.82;;;2.80;;
74624;SDS011;63131;52.298;8.056;2023-07-28T05:06:03;9.13;;;3.20;;
74624;SDS011;63131;52.298;8.056;2023-07-28T05:08:29;9.75;;;3.13;;
74624;SDS011;63131;52.298;8.056;2023-07-28T05:10:55;8.80;;;3.17;;
74624;SDS011;63131;52.298;8.056;2023-07-28T05:13:20;9.50;;;3.90;;
74624;SDS011;63131;52.298;8.056;2023-07-28T05:15:46;9.07;;;3.40;;
74624;SDS011;63131;52.298;8.056;2023-07-28T05:18:11;8.23;;;3.00;;
74624;SDS011;63131;52.298;8.056;2023-07-28T05:20:36;11.27;;;3.73;;
74624;SDS011;63131;52.298;8.056;2023-07-28T05:23:01;9.50;;;3.37;;
74624;SDS011;63131;52.298;8.056;2023-07-28T05:25:26;8.50;;;3.43;;
74624;SDS011;63131;52.298;8.056;2023-07-28T05:27:52;8.67;;;3.23;;
74624;SDS011;63131;52.298;8.056;2023-07-28T05:30:17;9.13;;;3.80;;
74624;SDS011;63131;52.298;8.056;2023-07-28T05:32:42;9.07;;;3.43;;
74624;SDS011;63131;52.298;8.056;2023-07-28T05:35:07;10.23;;;3.67;;
74624;SDS011;63131;52.298;8.056;2023-07-28T05:37:33;10.38;;;4.03;;
74624;SDS011;63131;52.298;8.056;2023-07-28T05:39:58;8.53;;;3.43;;
74624;SDS011;63131;52.298;8.056;2023-07-28T05:42:23;9.50;;;3.70;;
74624;SDS011;63131;52.298;8.056;2023-07-28T05:44:49;9.77;;;3.50;;
74624;SDS011;63131;52.298;8.056;2023-07-28T05:47:14;10.10;;;3.17;;
74624;SDS011;63131;52.298;8.056;2023-07-28T05:49:39;9.17;;;3.50;;
74624;SDS011;63131;52.298;8.056;2023-07-28T05:52:05;9.03;;;3.40;;
74624;SDS011;63131;52.298;8.056;2023-07-28T05:54:30;8.90;;;3.55;;
74624;SDS011;63131;52.298;8.056;2023-07-28T05:56:56;8.65;;;3.20;;
74624;SDS011;63131;52.298;8.056;2023-07-28T05:59:21;8.97;;;3.03;;
74624;SDS011;63131;52.298;8.056;2023-07-28T06:01:46;8.93;;;3.20;;
74624;SDS011;63131;52.298;8.056;2023-07-28T06:04:11;8.10;;;3.20;;
74624;SDS011;63131;52.298;8.056;2023-07-28T06:06:37;8.13;;;3.05;;
74624;SDS011;63131;52.298;8.056;2023-07-28T06:09:05;9.13;;;3.50;;
74624;SDS011;63131;52.298;8.056;2023-07-28T06:11:30;8.98;;;3.22;;
74624;SDS011;63131;52.298;8.056;2023-07-28T06:13:55;10.00;;;3.80;;
74624;SDS011;63131;52.298;8.056;2023-07-28T06:16:22;8.55;;;3.90;;
74624;SDS011;63131;52.298;8.056;2023-07-28T06:18:47;10.60;;;3.63;;
74624;SDS011;63131;52.298;8.056;2023-07-28T06:21:12;10.13;;;3.47;;
74624;SDS011;63131;52.298;8.056;2023-07-28T06:23:37;8.57;;;3.00;;
74624;SDS011;63131;52.298;8.056;2023-07-28T06:26:03;10.33;;;3.67;;
74624;SDS011;63131;52.298;8.056;2023-07-28T06:28:28;8.10;;;3.00;;
74624;SDS011;63131;52.298;8.056;2023-07-28T06:30:54;9.48;;;3.20;;
74624;SDS011;63131;52.298;8.056;2023-07-28T06:33:20;10.23;;;3.85;;
74624;SDS011;63131;52.298;8.056;2023-07-28T06:35:45;8.07;;;3.07;;
74624;SDS011;63131;52.298;8.056;2023-07-28T06:38:10;7.93;;;3.03;;
74624;SDS011;63131;52.298;8.056;2023-07-28T06:40:36;8.80;;;3.17;;
74624;SDS011;63131;52.298;8.056;2023-07-28T06:43:01;9.00;;;2.97;;
74624;SDS011;63131;52.298;8.056;2023-07-28T06:45:26;8.13;;;3.30;;
74624;SDS011;63131;52.298;8.056;2023-07-28T06:47:51;9.30;;;3.23;;
74624;SDS011;63131;52.298;8.056;2023-07-28T06:50:17;8.20;;;2.93;;
74624;SDS011;63131;52.298;8.056;2023-07-28T06:52:42;8.80;;;2.90;;
74624;SDS011;63131;52.298;8.056;2023-07-28T06:55:07;8.60;;;3.70;;
74624;SDS011;63131;52.298;8.056;2023-07-28T06:57:33;9.25;;;3.08;;
74624;SDS011;63131;52.298;8.056;2023-07-28T07:00:00;9.50;;;3.03;;
74624;SDS011;63131;52.298;8.056;2023-07-28T07:02:25;6.47;;;2.13;;
74624;SDS011;63131;52.298;8.056;2023-07-28T07:04:50;7.43;;;2.57;;
74624;SDS011;63131;52.298;8.056;2023-07-28T07:07:15;8.20;;;2.77;;
74624;SDS011;63131;52.298;8.056;2023-07-28T07:09:41;7.47;;;2.93;;
74624;SDS011;63131;52.298;8.056;2023-07-28T07:12:09;7.63;;;2.55;;
74624;SDS011;63131;52.298;8.056;2023-07-28T07:14:35;8.38;;;2.85;;
74624;SDS011;63131;52.298;8.056;2023-07-28T07:17:00;11.00;;;3.80;;
74624;SDS011;63131;52.298;8.056;2023-07-28T07:19:27;9.48;;;2.47;;
74624;SDS011;63131;52.298;8.056;2023-07-28T07:21:53;7.18;;;2.65;;
74624;SDS011;63131;52.298;8.056;2023-07-28T07:24:18;8.10;;;2.33;;
74624;SDS011;63131;52.298;8.056;2023-07-28T07:26:43;6.27;;;2.17;;
74624;SDS011;63131;52.298;8.056;2023-07-28T07:29:08;7.70;;;2.90;;
74624;SDS011;63131;52.298;8.056;2023-07-28T07:31:34;7.72;;;2.28;;
74624;SDS011;63131;52.298;8.056;2023-07-28T07:34:00;9.13;;;2.53;;
74624;SDS011;63131;52.298;8.056;2023-07-28T07:36:25;10.55;;;2.83;;
74624;SDS011;63131;52.298;8.056;2023-07-28T07:38:50;6.63;;;2.33;;
74624;SDS011;63131;52.298;8.056;2023-07-28T07:41:15;6.87;;;2.30;;
74624;SDS011;63131;52.298;8.056;2023-07-28T07:43:44;6.90;;;3.00;;
74624;SDS011;63131;52.298;8.056;2023-07-28T07:46:09;7.50;;;2.60;;
74624;SDS011;63131;52.298;8.056;2023-07-28T07:48:35;7.60;;;2.73;;
74624;SDS011;63131;52.298;8.056;2023-07-28T07:51:00;8.37;;;2.60;;
74624;SDS011;63131;52.298;8.056;2023-07-28T07:53:25;6.93;;;2.60;;
74624;SDS011;63131;52.298;8.056;2023-07-28T07:55:50;7.43;;;2.50;;
74624;SDS011;63131;52.298;8.056;2023-07-28T07:58:15;7.43;;;2.30;;
74624;SDS011;63131;52.298;8.056;2023-07-28T08:00:41;6.80;;;2.63;;
74624;SDS011;63131;52.298;8.056;2023-07-28T08:03:06;7.20;;;2.70;;
74624;SDS011;63131;52.298;8.056;2023-07-28T08:05:31;7.43;;;2.70;;
74624;SDS011;63131;52.298;8.056;2023-07-28T08:07:56;6.90;;;2.77;;
74624;SDS011;63131;52.298;8.056;2023-07-28T08:10:22;7.10;;;2.75;;
74624;SDS011;63131;52.298;8.056;2023-07-28T08:12:47;7.90;;;3.00;;
74624;SDS011;63131;52.298;8.056;2023-07-28T08:15:13;6.55;;;2.67;;
74624;SDS011;63131;52.298;8.056;2023-07-28T08:17:38;7.75;;;2.67;;
74624;SDS011;63131;52.298;8.056;2023-07-28T08:20:04;7.65;;;3.20;;
74624;SDS011;63131;52.298;8.056;2023-07-28T08:22:30;11.05;;;3.33;;
74624;SDS011;63131;52.298;8.056;2023-07-28T08:24:55;7.82;;;3.03;;
74624;SDS011;63131;52.298;8.056;2023-07-28T08:27:21;8.13;;;3.07;;
74624;SDS011;63131;52.298;8.056;2023-07-28T08:29:46;8.10;;;3.17;;
74624;SDS011;63131;52.298;8.056;2023-07-28T08:32:11;8.30;;;3.00;;
74624;SDS011;63131;52.298;8.056;2023-07-28T08:34:36;8.60;;;2.77;;
74624;SDS011;63131;52.298;8.056;2023-07-28T08:37:02;7.30;;;2.57;;
74624;SDS011;63131;52.298;8.056;2023-07-28T08:39:27;7.43;;;3.00;;
74624;SDS011;63131;52.298;8.056;2023-07-28T08:42:00;7.57;;;2.93;;
74624;SDS011;63131;52.298;8.056;2023-07-28T08:44:25;9.20;;;3.40;;
74624;SDS011;63131;52.298;8.056;2023-07-28T08:46:51;7.88;;;3.05;;
74624;SDS011;63131;52.298;8.056;2023-07-28T08:49:17;9.23;;;3.60;;
74624;SDS011;63131;52.298;8.056;2023-07-28T08:51:42;8.63;;;2.57;;
74624;SDS011;63131;52.298;8.056;2023-07-28T08:54:07;9.35;;;3.60;;
74624;SDS011;63131;52.298;8.056;2023-07-28T08:56:32;8.00;;;3.20;;
74624;SDS011;63131;52.298;8.056;2023-07-28T08:58:58;8.47;;;3.37;;
74624;SDS011;63131;52.298;8.056;2023-07-28T09:01:24;8.35;;;2.95;;
74624;SDS011;63131;52.298;8.056;2023-07-28T09:03:49;7.45;;;2.70;;
74624;SDS011;63131;52.298;8.056;2023-07-28T09:06:17;7.43;;;2.80;;
74624;SDS011;63131;52.298;8.056;2023-07-28T09:08:43;7.78;;;2.95;;
74624;SDS011;63131;52.298;8.056;2023-07-28T09:11:09;7.22;;;2.85;;
74624;SDS011;63131;52.298;8.056;2023-07-28T09:13:40;8.05;;;3.35;;
74624;SDS011;63131;52.298;8.056;2023-07-28T09:16:18;8.65;;;3.47;;
74624;SDS011;63131;52.298;8.056;2023-07-28T09:18:43;7.13;;;2.90;;
74624;SDS011;63131;52.298;8.056;2023-07-28T09:21:18;7.63;;;2.85;;
74624;SDS011;63131;52.298;8.056;2023-07-28T09:23:45;8.10;;;3.10;;
74624;SDS011;63131;52.298;8.056;2023-07-28T09:26:11;7.07;;;2.73;;
74624;SDS011;63131;52.298;8.056;2023-07-28T09:28:37;7.50;;;2.45;;
74624;SDS011;63131;52.298;8.056;2023-07-28T09:31:03;6.25;;;2.28;;
74624;SDS011;63131;52.298;8.056;2023-07-28T09:33:29;6.30;;;2.40;;
74624;SDS011;63131;52.298;8.056;2023-07-28T09:35:55;7.70;;;3.00;;
74624;SDS011;63131;52.298;8.056;2023-07-28T09:38:20;7.93;;;3.03;;
74624;SDS011;63131;52.298;8.056;2023-07-28T09:40:47;6.60;;;2.20;;
74624;SDS011;63131;52.298;8.056;2023-07-28T09:43:14;7.80;;;2.92;;
74624;SDS011;63131;52.298;8.056;2023-07-28T09:45:40;6.67;;;2.53;;
74624;SDS011;63131;52.298;8.056;2023-07-28T09:48:05;6.73;;;2.43;;
74624;SDS011;63131;52.298;8.056;2023-07-28T09:50:32;7.15;;;2.70;;
74624;SDS011;63131;52.298;8.056;2023-07-28T09:52:58;8.30;;;2.90;;
74624;SDS011;63131;52.298;8.056;2023-07-28T09:55:26;7.15;;;2.63;;
74624;SDS011;63131;52.298;8.056;2023-07-28T09:57:52;6.50;;;2.20;;
74624;SDS011;63131;52.298;8.056;2023-07-28T10:00:19;6.63;;;2.42;;
74624;SDS011;63131;52.298;8.056;2023-07-28T10:02:45;7.95;;;2.75;;
74624;SDS011;63131;52.298;8.056;2023-07-28T10:05:11;7.57;;;2.58;;
74624;SDS011;63131;52.298;8.056;2023-07-28T10:07:40;7.47;;;2.97;;
74624;SDS011;63131;52.298;8.056;2023-07-28T10:10:07;7.35;;;2.85;;
74624;SDS011;63131;52.298;8.056;2023-07-28T10:12:50;7.57;;;2.85;;
74624;SDS011;63131;52.298;8.056;2023-07-28T10:15:16;7.00;;;2.78;;
74624;SDS011;63131;52.298;8.056;2023-07-28T10:17:53;7.65;;;2.80;;
74624;SDS011;63131;52.298;8.056;2023-07-28T10:23:01;9.13;;;3.10;;
74624;SDS011;63131;52.298;8.056;2023-07-28T10:25:26;9.40;;;3.15;;
74624;SDS011;63131;52.298;8.056;2023-07-28T10:27:52;8.65;;;3.05;;
74624;SDS011;63131;52.298;8.056;2023-07-28T10:30:18;7.10;;;2.45;;
74624;SDS011;63131;52.298;8.056;2023-07-28T10:32:46;7.63;;;2.95;;
74624;SDS011;63131;52.298;8.056;2023-07-28T10:37:39;9.60;;;4.03;;
74624;SDS011;63131;52.298;8.056;2023-07-28T10:42:49;10.18;;;3.97;;
74624;SDS011;63131;52.298;8.056;2023-07-28T10:45:14;9.10;;;3.58;;
74624;SDS011;63131;52.298;8.056;2023-07-28T10:47:43;9.00;;;4.07;;
74624;SDS011;63131;52.298;8.056;2023-07-28T10:50:09;8.07;;;3.38;;
74624;SDS011;63131;52.298;8.056;2023-07-28T10:52:34;8.55;;;3.83;;
74624;SDS011;63131;52.298;8.056;2023-07-28T10:54:59;8.45;;;4.05;;
74624;SDS011;63131;52.298;8.056;2023-07-28T10:57:24;9.57;;;3.90;;
74624;SDS011;63131;52.298;8.056;2023-07-28T10:59:51;9.98;;;3.83;;
74624;SDS011;63131;52.298;8.056;2023-07-28T11:02:16;9.47;;;4.07;;
74624;SDS011;63131;52.298;8.056;2023-07-28T11:04:45;8.90;;;3.60;;
74624;SDS011;63131;52.298;8.056;2023-07-28T11:07:11;8.55;;;3.90;;
74624;SDS011;63131;52.298;8.056;2023-07-28T11:09:36;9.23;;;4.17;;
74624;SDS011;63131;52.298;8.056;2023-07-28T11:12:01;9.43;;;4.10;;
74624;SDS011;63131;52.298;8.056;2023-07-28T11:14:26;8.77;;;3.50;;
74624;SDS011;63131;52.298;8.056;2023-07-28T11:16:52;10.37;;;5.07;;
74624;SDS011;63131;52.298;8.056;2023-07-28T11:19:17;9.32;;;4.57;;
74624;SDS011;63131;52.298;8.056;2023-07-28T11:21:49;10.07;;;4.25;;
74624;SDS011;63131;52.298;8.056;2023-07-28T11:24:17;12.77;;;4.65;;
74624;SDS011;63131;52.298;8.056;2023-07-28T11:26:43;8.60;;;3.78;;
74624;SDS011;63131;52.298;8.056;2023-07-28T11:29:11;12.40;;;4.80;;
74624;SDS011;63131;52.298;8.056;2023-07-28T11:31:36;10.23;;;4.78;;
74624;SDS011;63131;52.298;8.056;2023-07-28T11:34:01;11.75;;;5.45;;
74624;SDS011;63131;52.298;8.056;2023-07-28T11:36:30;11.50;;;5.45;;
74624;SDS011;63131;52.298;8.056;2023-07-28T11:38:58;10.48;;;5.43;;
74624;SDS011;63131;52.298;8.056;2023-07-28T11:41:24;11.05;;;4.82;;
74624;SDS011;63131;52.298;8.056;2023-07-28T11:43:50;11.48;;;5.70;;
74624;SDS011;63131;52.298;8.056;2023-07-28T11:49:07;12.25;;;5.57;;
74624;SDS011;63131;52.298;8.056;2023-07-28T11:53:57;13.77;;;5.95;;
74624;SDS011;63131;52.298;8.056;2023-07-28T11:56:23;12.77;;;6.20;;
74624;SDS011;63131;52.298;8.056;2023-07-28T11:58:52;13.05;;;5.55;;
74624;SDS011;63131;52.298;8.056;2023-07-28T12:01:17;11.88;;;5.53;;
74624;SDS011;63131;52.298;8.056;2023-07-28T12:03:43;12.10;;;6.87;;
74624;SDS011;63131;52.298;8.056;2023-07-28T12:06:08;12.87;;;5.30;;
74624;SDS011;63131;52.298;8.056;2023-07-28T12:08:35;11.07;;;5.80;;
74624;SDS011;63131;52.298;8.056;2023-07-28T12:11:01;12.80;;;6.20;;
74624;SDS011;63131;52.298;8.056;2023-07-28T12:13:26;12.05;;;6.07;;
74624;SDS011;63131;52.298;8.056;2023-07-28T12:15:52;12.73;;;6.97;;
74624;SDS011;63131;52.298;8.056;2023-07-28T12:18:17;11.40;;;5.18;;
74624;SDS011;63131;52.298;8.056;2023-07-28T12:20:45;11.45;;;5.72;;
74624;SDS011;63131;52.298;8.056;2023-07-28T12:23:16;11.65;;;5.38;;
74624;SDS011;63131;52.298;8.056;2023-07-28T12:25:41;11.55;;;5.28;;
74624;SDS011;63131;52.298;8.056;2023-07-28T12:28:07;11.50;;;5.60;;
74624;SDS011;63131;52.298;8.056;2023-07-28T12:30:33;11.93;;;5.60;;
74624;SDS011;63131;52.298;8.056;2023-07-28T12:32:58;11.82;;;6.00;;
74624;SDS011;63131;52.298;8.056;2023-07-28T12:35:24;10.90;;;6.20;;
74624;SDS011;63131;52.298;8.056;2023-07-28T12:37:50;9.77;;;4.68;;
74624;SDS011;63131;52.298;8.056;2023-07-28T12:40:16;11.02;;;5.43;;
74624;SDS011;63131;52.298;8.056;2023-07-28T12:42:41;10.40;;;4.55;;
74624;SDS011;63131;52.298;8.056;2023-07-28T12:45:06;10.90;;;5.13;;
74624;SDS011;63131;52.298;8.056;2023-07-28T12:47:32;10.43;;;5.15;;
74624;SDS011;63131;52.298;8.056;2023-07-28T12:49:57;10.23;;;5.30;;
74624;SDS011;63131;52.298;8.056;2023-07-28T12:52:22;11.40;;;5.07;;
74624;SDS011;63131;52.298;8.056;2023-07-28T12:54:47;9.13;;;4.33;;
74624;SDS011;63131;52.298;8.056;2023-07-28T12:57:13;8.20;;;4.17;;
74624;SDS011;63131;52.298;8.056;2023-07-28T12:59:38;8.90;;;4.27;;
74624;SDS011;63131;52.298;8.056;2023-07-28T13:02:04;9.50;;;4.43;;
74624;SDS011;63131;52.298;8.056;2023-07-28T13:04:29;11.50;;;5.07;;
74624;SDS011;63131;52.298;8.056;2023-07-28T13:06:54;9.73;;;4.27;;
74624;SDS011;63131;52.298;8.056;2023-07-28T13:09:19;9.63;;;4.50;;
74624;SDS011;63131;52.298;8.056;2023-07-28T13:11:45;10.70;;;4.57;;
74624;SDS011;63131;52.298;8.056;2023-07-28T13:14:10;10.17;;;4.30;;
74624;SDS011;63131;52.298;8.056;2023-07-28T13:16:35;9.17;;;3.90;;
74624;SDS011;63131;52.298;8.056;2023-07-28T13:19:02;9.35;;;4.25;;
74624;SDS011;63131;52.298;8.056;2023-07-28T13:21:28;10.82;;;4.85;;
74624;SDS011;63131;52.298;8.056;2023-07-28T13:23:53;9.87;;;4.50;;
74624;SDS011;63131;52.298;8.056;2023-07-28T13:26:18;10.60;;;4.33;;
74624;SDS011;63131;52.298;8.056;2023-07-28T13:28:43;10.17;;;4.23;;
74624;SDS011;63131;52.298;8.056;2023-07-28T13:31:12;8.70;;;4.20;;
74624;SDS011;63131;52.298;8.056;2023-07-28T13:33:37;9.30;;;4.55;;
74624;SDS011;63131;52.298;8.056;2023-07-28T13:36:02;10.00;;;5.10;;
74624;SDS011;63131;52.298;8.056;2023-07-28T13:38:32;11.57;;;4.20;;
74624;SDS011;63131;52.298;8.056;2023-07-28T13:40:57;7.53;;;3.75;;
74624;SDS011;63131;52.298;8.056;2023-07-28T13:43:22;9.80;;;3.20;;
74624;SDS011;63131;52.298;8.056;2023-07-28T13:45:47;8.27;;;3.53;;
74624;SDS011;63131;52.298;8.056;2023-07-28T13:48:12;8.07;;;3.47;;
74624;SDS011;63131;52.298;8.056;2023-07-28T13:50:38;8.33;;;3.40;;
74624;SDS011;63131;52.298;8.056;2023-07-28T13:53:03;8.33;;;3.37;;
74624;SDS011;63131;52.298;8.056;2023-07-28T13:55:28;8.87;;;3.60;;
74624;SDS011;63131;52.298;8.056;2023-07-28T13:57:53;7.87;;;3.20;;
74624;SDS011;63131;52.298;8.056;2023-07-28T14:00:19;8.48;;;3.60;;
74624;SDS011;63131;52.298;8.056;2023-07-28T14:02:44;8.37;;;3.70;;
74624;SDS011;63131;52.298;8.056;2023-07-28T14:05:09;8.60;;;4.43;;
74624;SDS011;63131;52.298;8.056;2023-07-28T14:07:34;7.27;;;2.97;;
74624;SDS011;63131;52.298;8.056;2023-07-28T14:10:00;7.85;;;3.30;;
74624;SDS011;63131;52.298;8.056;2023-07-28T14:12:25;9.30;;;3.30;;
74624;SDS011;63131;52.298;8.056;2023-07-28T14:14:51;7.50;;;2.87;;
74624;SDS011;63131;52.298;8.056;2023-07-28T14:17:16;8.18;;;3.20;;
74624;SDS011;63131;52.298;8.056;2023-07-28T14:19:41;7.83;;;3.50;;
74624;SDS011;63131;52.298;8.056;2023-07-28T14:22:07;7.83;;;3.40;;
74624;SDS011;63131;52.298;8.056;2023-07-28T14:24:32;8.68;;;3.20;;
74624;SDS011;63131;52.298;8.056;2023-07-28T14:26:57;6.53;;;3.07;;
74624;SDS011;63131;52.298;8.056;2023-07-28T14:29:22;8.25;;;2.63;;
74624;SDS011;63131;52.298;8.056;2023-07-28T14:31:48;9.13;;;3.13;;
74624;SDS011;63131;52.298;8.056;2023-07-28T14:34:13;8.27;;;3.55;;
74624;SDS011;63131;52.298;8.056;2023-07-28T14:36:38;7.80;;;3.50;;
74624;SDS011;63131;52.298;8.056;2023-07-28T14:39:04;7.45;;;3.45;;
74624;SDS011;63131;52.298;8.056;2023-07-28T14:41:29;8.00;;;3.42;;
74624;SDS011;63131;52.298;8.056;2023-07-28T14:43:54;7.38;;;3.28;;
74624;SDS011;63131;52.298;8.056;2023-07-28T14:46:20;7.93;;;3.37;;
74624;SDS011;63131;52.298;8.056;2023-07-28T14:48:47;7.38;;;3.30;;
74624;SDS011;63131;52.298;8.056;2023-07-28T14:51:12;8.02;;;3.70;;
74624;SDS011;63131;52.298;8.056;2023-07-28T14:53:38;8.13;;;3.75;;
74624;SDS011;63131;52.298;8.056;2023-07-28T14:56:05;8.55;;;3.35;;
74624;SDS011;63131;52.298;8.056;2023-07-28T14:58:30;7.53;;;3.42;;
74624;SDS011;63131;52.298;8.056;2023-07-28T15:00:56;8.27;;;3.92;;
74624;SDS011;63131;52.298;8.056;2023-07-28T15:03:22;9.82;;;3.80;;
74624;SDS011;63131;52.298;8.056;2023-07-28T15:05:48;8.48;;;4.13;;
74624;SDS011;63131;52.298;8.056;2023-07-28T15:08:13;8.00;;;3.60;;
74624;SDS011;63131;52.298;8.056;2023-07-28T15:10:38;8.73;;;4.00;;
74624;SDS011;63131;52.298;8.056;2023-07-28T15:13:04;8.60;;;3.77;;